sensor_id;sensor_type;location;lat;lon;timestamp;P1;durP1;ratioP1;P2;durP2;ratioP2
1682;SDS011;13252;53.596;10.060;2022-12-05T00:01:14;30.63;;;19.77;;
1682;SDS011;13252;53.596;10.060;2022-12-05T00:03:46;29.73;;;19.60;;
1682;SDS011;13252;53.596;10.060;2022-12-05T00:06:15;34.90;;;22.20;;
1682;SDS011;13252;53.596;10.060;2022-12-05T00:08:43;36.37;;;23.23;;
1682;SDS011;13252;53.596;10.060;2022-12-05T00:11:12;32.47;;;21.17;;
1682;SDS011;13252;53.596;10.060;2022-12-05T00:13:42;30.70;;;20.10;;
1682;SDS011;13252;53.596;10.060;2022-12-05T00:16:11;33.57;;;20.77;;
1682;SDS011;13252;53.596;10.060;2022-12-05T00:18:41;33.83;;;18.67;;
1682;SDS011;13252;53.596;10.060;2022-12-05T00:21:12;27.83;;;17.90;;
1682;SDS011;13252;53.596;10.060;2022-12-05T00:23:41;31.40;;;21.63;;
1682;SDS011;13252;53.596;10.060;2022-12-05T00:26:09;28.87;;;18.23;;
1682;SDS011;13252;53.596;10.060;2022-12-05T00:28:37;29.93;;;19.80;;
1682;SDS011;13252;53.596;10.060;2022-12-05T00:31:06;30.37;;;19.40;;
1682;SDS011;13252;53.596;10.060;2022-12-05T00:33:36;26.67;;;17.70;;
1682;SDS011;13252;53.596;10.060;2022-12-05T00:36:04;23.53;;;18.20;;
1682;SDS011;13252;53.596;10.060;2022-12-05T00:38:35;24.77;;;17.00;;
1682;SDS011;13252;53.596;10.060;2022-12-05T00:41:04;25.60;;;17.77;;
1682;SDS011;13252;53.596;10.060;2022-12-05T00:43:33;24.80;;;17.73;;
1682;SDS011;13252;53.596;10.060;2022-12-05T00:46:01;26.20;;;18.77;;
1682;SDS011;13252;53.596;10.060;2022-12-05T00:48:30;28.90;;;18.93;;
1682;SDS011;13252;53.596;10.060;2022-12-05T00:50:59;30.53;;;19.63;;
1682;SDS011;13252;53.596;10.060;2022-12-05T00:53:27;27.30;;;18.90;;
1682;SDS011;13252;53.596;10.060;2022-12-05T00:56:00;30.73;;;19.90;;
1682;SDS011;13252;53.596;10.060;2022-12-05T00:58:29;27.73;;;18.90;;
1682;SDS011;13252;53.596;10.060;2022-12-05T01:00:57;28.13;;;17.87;;
1682;SDS011;13252;53.596;10.060;2022-12-05T01:03:25;25.27;;;15.40;;
1682;SDS011;13252;53.596;10.060;2022-12-05T01:05:53;30.63;;;19.33;;
1682;SDS011;13252;53.596;10.060;2022-12-05T01:08:21;32.53;;;20.57;;
1682;SDS011;13252;53.596;10.060;2022-12-05T01:10:52;34.77;;;20.67;;
1682;SDS011;13252;53.596;10.060;2022-12-05T01:13:22;26.00;;;17.93;;
1682;SDS011;13252;53.596;10.060;2022-12-05T01:15:51;27.27;;;17.27;;
1682;SDS011;13252;53.596;10.060;2022-12-05T01:18:19;24.00;;;18.03;;
1682;SDS011;13252;53.596;10.060;2022-12-05T01:20:48;28.20;;;17.27;;
1682;SDS011;13252;53.596;10.060;2022-12-05T01:23:17;29.20;;;20.20;;
1682;SDS011;13252;53.596;10.060;2022-12-05T01:25:46;27.83;;;19.60;;
1682;SDS011;13252;53.596;10.060;2022-12-05T01:28:15;26.50;;;18.50;;
1682;SDS011;13252;53.596;10.060;2022-12-05T01:30:45;20.90;;;16.83;;
1682;SDS011;13252;53.596;10.060;2022-12-05T01:33:14;21.77;;;16.17;;
1682;SDS011;13252;53.596;10.060;2022-12-05T01:35:42;24.10;;;16.83;;
1682;SDS011;13252;53.596;10.060;2022-12-05T01:38:11;24.90;;;17.37;;
1682;SDS011;13252;53.596;10.060;2022-12-05T01:40:39;24.20;;;18.13;;
1682;SDS011;13252;53.596;10.060;2022-12-05T01:43:09;29.27;;;17.50;;
1682;SDS011;13252;53.596;10.060;2022-12-05T01:45:41;27.23;;;17.20;;
1682;SDS011;13252;53.596;10.060;2022-12-05T01:48:13;24.97;;;18.20;;
1682;SDS011;13252;53.596;10.060;2022-12-05T01:50:42;24.50;;;16.60;;
1682;SDS011;13252;53.596;10.060;2022-12-05T01:53:11;25.50;;;15.57;;
1682;SDS011;13252;53.596;10.060;2022-12-05T01:55:38;26.90;;;16.63;;
1682;SDS011;13252;53.596;10.060;2022-12-05T01:58:06;25.87;;;19.33;;
1682;SDS011;13252;53.596;10.060;2022-12-05T02:00:34;26.23;;;17.77;;
1682;SDS011;13252;53.596;10.060;2022-12-05T02:03:05;22.07;;;16.40;;
1682;SDS011;13252;53.596;10.060;2022-12-05T02:05:36;26.00;;;18.43;;
1682;SDS011;13252;53.596;10.060;2022-12-05T02:08:05;27.10;;;18.67;;
1682;SDS011;13252;53.596;10.060;2022-12-05T02:10:35;25.00;;;18.47;;
1682;SDS011;13252;53.596;10.060;2022-12-05T02:13:15;23.77;;;17.87;;
1682;SDS011;13252;53.596;10.060;2022-12-05T02:16:27;27.20;;;18.30;;
1682;SDS011;13252;53.596;10.060;2022-12-05T02:19:14;26.03;;;18.50;;
1682;SDS011;13252;53.596;10.060;2022-12-05T02:21:57;27.40;;;20.40;;
1682;SDS011;13252;53.596;10.060;2022-12-05T02:24:50;25.53;;;17.63;;
1682;SDS011;13252;53.596;10.060;2022-12-05T02:27:36;29.93;;;18.30;;
1682;SDS011;13252;53.596;10.060;2022-12-05T02:30:12;27.33;;;18.20;;
1682;SDS011;13252;53.596;10.060;2022-12-05T02:32:44;30.03;;;19.17;;
1682;SDS011;13252;53.596;10.060;2022-12-05T02:35:20;27.70;;;20.90;;
1682;SDS011;13252;53.596;10.060;2022-12-05T02:37:56;25.40;;;17.53;;
1682;SDS011;13252;53.596;10.060;2022-12-05T02:40:30;28.27;;;19.37;;
1682;SDS011;13252;53.596;10.060;2022-12-05T02:43:03;27.60;;;21.07;;
1682;SDS011;13252;53.596;10.060;2022-12-05T02:45:35;26.90;;;16.17;;
1682;SDS011;13252;53.596;10.060;2022-12-05T02:48:05;30.83;;;20.97;;
1682;SDS011;13252;53.596;10.060;2022-12-05T02:50:33;28.57;;;20.20;;
1682;SDS011;13252;53.596;10.060;2022-12-05T02:53:04;31.93;;;22.97;;
1682;SDS011;13252;53.596;10.060;2022-12-05T02:55:34;32.57;;;21.97;;
1682;SDS011;13252;53.596;10.060;2022-12-05T02:58:03;31.23;;;20.27;;
1682;SDS011;13252;53.596;10.060;2022-12-05T03:00:34;30.07;;;22.03;;
1682;SDS011;13252;53.596;10.060;2022-12-05T03:03:05;29.57;;;20.83;;
1682;SDS011;13252;53.596;10.060;2022-12-05T03:05:40;37.30;;;21.30;;
1682;SDS011;13252;53.596;10.060;2022-12-05T03:08:12;31.40;;;20.03;;
1682;SDS011;13252;53.596;10.060;2022-12-05T03:10:43;38.03;;;23.60;;
1682;SDS011;13252;53.596;10.060;2022-12-05T03:13:13;31.30;;;18.93;;
1682;SDS011;13252;53.596;10.060;2022-12-05T03:15:44;32.47;;;20.67;;
1682;SDS011;13252;53.596;10.060;2022-12-05T03:18:14;33.63;;;21.53;;
1682;SDS011;13252;53.596;10.060;2022-12-05T03:20:45;30.57;;;20.47;;
1682;SDS011;13252;53.596;10.060;2022-12-05T03:23:15;34.37;;;20.97;;
1682;SDS011;13252;53.596;10.060;2022-12-05T03:25:46;30.80;;;19.57;;
1682;SDS011;13252;53.596;10.060;2022-12-05T03:28:19;36.53;;;21.93;;
1682;SDS011;13252;53.596;10.060;2022-12-05T03:30:52;35.00;;;21.13;;
1682;SDS011;13252;53.596;10.060;2022-12-05T03:33:22;33.83;;;21.60;;
1682;SDS011;13252;53.596;10.060;2022-12-05T03:35:55;37.70;;;22.20;;
1682;SDS011;13252;53.596;10.060;2022-12-05T03:38:28;32.33;;;21.07;;
1682;SDS011;13252;53.596;10.060;2022-12-05T03:40:59;30.03;;;21.93;;
1682;SDS011;13252;53.596;10.060;2022-12-05T03:43:33;40.00;;;24.17;;
1682;SDS011;13252;53.596;10.060;2022-12-05T03:46:06;37.10;;;24.27;;
1682;SDS011;13252;53.596;10.060;2022-12-05T03:48:36;36.10;;;22.73;;
1682;SDS011;13252;53.596;10.060;2022-12-05T03:51:06;38.10;;;24.03;;
1682;SDS011;13252;53.596;10.060;2022-12-05T03:56:04;34.40;;;25.00;;
1682;SDS011;13252;53.596;10.060;2022-12-05T03:59:40;40.10;;;26.00;;
1682;SDS011;13252;53.596;10.060;2022-12-05T04:02:24;36.30;;;24.67;;
1682;SDS011;13252;53.596;10.060;2022-12-05T04:05:14;48.13;;;24.93;;
1682;SDS011;13252;53.596;10.060;2022-12-05T04:08:27;35.67;;;24.33;;
1682;SDS011;13252;53.596;10.060;2022-12-05T04:12:12;36.80;;;23.70;;
1682;SDS011;13252;53.596;10.060;2022-12-05T04:19:10;38.23;;;24.50;;
1682;SDS011;13252;53.596;10.060;2022-12-05T04:22:18;38.87;;;25.10;;
1682;SDS011;13252;53.596;10.060;2022-12-05T04:24:46;37.13;;;23.53;;
1682;SDS011;13252;53.596;10.060;2022-12-05T04:27:39;34.07;;;22.33;;
1682;SDS011;13252;53.596;10.060;2022-12-05T04:30:10;41.83;;;26.40;;
1682;SDS011;13252;53.596;10.060;2022-12-05T04:35:28;42.33;;;24.87;;
1682;SDS011;13252;53.596;10.060;2022-12-05T04:38:00;38.27;;;24.20;;
1682;SDS011;13252;53.596;10.060;2022-12-05T04:40:32;43.17;;;25.43;;
1682;SDS011;13252;53.596;10.060;2022-12-05T04:43:05;37.67;;;23.83;;
1682;SDS011;13252;53.596;10.060;2022-12-05T04:45:47;41.43;;;25.47;;
1682;SDS011;13252;53.596;10.060;2022-12-05T04:48:57;43.43;;;25.20;;
1682;SDS011;13252;53.596;10.060;2022-12-05T04:52:06;40.00;;;24.50;;
1682;SDS011;13252;53.596;10.060;2022-12-05T04:54:36;40.73;;;22.20;;
1682;SDS011;13252;53.596;10.060;2022-12-05T04:57:14;44.17;;;25.50;;
1682;SDS011;13252;53.596;10.060;2022-12-05T04:59:45;37.33;;;21.77;;
1682;SDS011;13252;53.596;10.060;2022-12-05T05:02:17;42.40;;;24.30;;
1682;SDS011;13252;53.596;10.060;2022-12-05T05:04:46;42.20;;;23.13;;
1682;SDS011;13252;53.596;10.060;2022-12-05T05:07:30;39.43;;;24.20;;
1682;SDS011;13252;53.596;10.060;2022-12-05T05:10:13;38.93;;;22.87;;
1682;SDS011;13252;53.596;10.060;2022-12-05T05:13:24;36.03;;;21.50;;
1682;SDS011;13252;53.596;10.060;2022-12-05T05:15:53;42.03;;;23.87;;
1682;SDS011;13252;53.596;10.060;2022-12-05T05:18:21;37.67;;;22.37;;
1682;SDS011;13252;53.596;10.060;2022-12-05T05:24:07;42.07;;;23.77;;
1682;SDS011;13252;53.596;10.060;2022-12-05T05:26:37;43.37;;;22.20;;
1682;SDS011;13252;53.596;10.060;2022-12-05T05:29:06;51.87;;;24.17;;
1682;SDS011;13252;53.596;10.060;2022-12-05T05:31:36;40.80;;;23.10;;
1682;SDS011;13252;53.596;10.060;2022-12-05T05:34:15;45.63;;;24.03;;
1682;SDS011;13252;53.596;10.060;2022-12-05T05:37:00;47.97;;;25.50;;
1682;SDS011;13252;53.596;10.060;2022-12-05T05:39:33;44.70;;;23.27;;
1682;SDS011;13252;53.596;10.060;2022-12-05T05:42:01;48.57;;;25.33;;
1682;SDS011;13252;53.596;10.060;2022-12-05T05:44:29;50.40;;;23.47;;
1682;SDS011;13252;53.596;10.060;2022-12-05T05:47:11;46.37;;;23.57;;
1682;SDS011;13252;53.596;10.060;2022-12-05T05:49:39;48.93;;;25.30;;
1682;SDS011;13252;53.596;10.060;2022-12-05T05:52:09;53.47;;;27.10;;
1682;SDS011;13252;53.596;10.060;2022-12-05T05:54:39;53.40;;;26.67;;
1682;SDS011;13252;53.596;10.060;2022-12-05T05:57:08;56.13;;;28.20;;
1682;SDS011;13252;53.596;10.060;2022-12-05T05:59:48;60.37;;;30.00;;
1682;SDS011;13252;53.596;10.060;2022-12-05T06:02:16;62.60;;;30.50;;
1682;SDS011;13252;53.596;10.060;2022-12-05T06:04:49;58.57;;;29.20;;
1682;SDS011;13252;53.596;10.060;2022-12-05T06:07:17;63.23;;;28.30;;
1682;SDS011;13252;53.596;10.060;2022-12-05T06:09:48;58.30;;;26.10;;
1682;SDS011;13252;53.596;10.060;2022-12-05T06:12:19;54.23;;;24.57;;
1682;SDS011;13252;53.596;10.060;2022-12-05T06:15:07;58.50;;;29.87;;
1682;SDS011;13252;53.596;10.060;2022-12-05T06:17:37;58.30;;;28.17;;
1682;SDS011;13252;53.596;10.060;2022-12-05T06:20:08;66.53;;;30.40;;
1682;SDS011;13252;53.596;10.060;2022-12-05T06:22:36;57.37;;;25.20;;
1682;SDS011;13252;53.596;10.060;2022-12-05T06:34:05;60.17;;;28.23;;
1682;SDS011;13252;53.596;10.060;2022-12-05T06:36:33;65.60;;;27.57;;
1682;SDS011;13252;53.596;10.060;2022-12-05T06:39:02;64.50;;;29.30;;
1682;SDS011;13252;53.596;10.060;2022-12-05T06:41:39;61.03;;;28.00;;
1682;SDS011;13252;53.596;10.060;2022-12-05T06:44:09;65.37;;;31.43;;
1682;SDS011;13252;53.596;10.060;2022-12-05T06:46:39;63.00;;;29.17;;
1682;SDS011;13252;53.596;10.060;2022-12-05T06:49:08;69.40;;;27.73;;
1682;SDS011;13252;53.596;10.060;2022-12-05T06:51:39;54.27;;;27.20;;
1682;SDS011;13252;53.596;10.060;2022-12-05T06:54:07;56.73;;;26.03;;
1682;SDS011;13252;53.596;10.060;2022-12-05T06:56:36;78.67;;;29.77;;
1682;SDS011;13252;53.596;10.060;2022-12-05T06:59:05;74.47;;;29.50;;
1682;SDS011;13252;53.596;10.060;2022-12-05T07:01:41;68.30;;;30.43;;
1682;SDS011;13252;53.596;10.060;2022-12-05T07:04:28;70.87;;;30.17;;
1682;SDS011;13252;53.596;10.060;2022-12-05T07:07:25;77.60;;;30.73;;
1682;SDS011;13252;53.596;10.060;2022-12-05T07:09:55;93.43;;;34.57;;
1682;SDS011;13252;53.596;10.060;2022-12-05T07:12:26;74.50;;;30.87;;
1682;SDS011;13252;53.596;10.060;2022-12-05T07:14:57;75.67;;;35.40;;
1682;SDS011;13252;53.596;10.060;2022-12-05T07:17:51;75.63;;;32.47;;
1682;SDS011;13252;53.596;10.060;2022-12-05T07:20:19;78.73;;;31.47;;
1682;SDS011;13252;53.596;10.060;2022-12-05T07:26:21;81.60;;;30.33;;
1682;SDS011;13252;53.596;10.060;2022-12-05T07:28:59;61.67;;;29.23;;
1682;SDS011;13252;53.596;10.060;2022-12-05T07:31:47;69.70;;;28.67;;
1682;SDS011;13252;53.596;10.060;2022-12-05T07:35:16;75.70;;;28.10;;
1682;SDS011;13252;53.596;10.060;2022-12-05T07:37:45;53.67;;;25.37;;
1682;SDS011;13252;53.596;10.060;2022-12-05T07:41:18;53.50;;;25.13;;
1682;SDS011;13252;53.596;10.060;2022-12-05T07:43:47;61.37;;;25.63;;
1682;SDS011;13252;53.596;10.060;2022-12-05T07:46:52;45.03;;;22.10;;
1682;SDS011;13252;53.596;10.060;2022-12-05T07:49:20;54.50;;;27.20;;
1682;SDS011;13252;53.596;10.060;2022-12-05T07:52:38;59.73;;;26.70;;
1682;SDS011;13252;53.596;10.060;2022-12-05T07:55:27;58.50;;;27.37;;
1682;SDS011;13252;53.596;10.060;2022-12-05T07:58:02;63.23;;;25.83;;
1682;SDS011;13252;53.596;10.060;2022-12-05T08:00:49;55.23;;;26.17;;
1682;SDS011;13252;53.596;10.060;2022-12-05T08:03:17;53.30;;;25.10;;
1682;SDS011;13252;53.596;10.060;2022-12-05T08:05:46;65.07;;;26.30;;
1682;SDS011;13252;53.596;10.060;2022-12-05T08:08:21;55.43;;;26.30;;
1682;SDS011;13252;53.596;10.060;2022-12-05T08:10:49;53.07;;;23.07;;
1682;SDS011;13252;53.596;10.060;2022-12-05T08:13:18;58.43;;;26.57;;
1682;SDS011;13252;53.596;10.060;2022-12-05T08:16:21;61.93;;;27.60;;
1682;SDS011;13252;53.596;10.060;2022-12-05T08:19:35;65.67;;;26.67;;
1682;SDS011;13252;53.596;10.060;2022-12-05T08:22:20;65.30;;;29.07;;
1682;SDS011;13252;53.596;10.060;2022-12-05T08:24:50;59.70;;;27.93;;
1682;SDS011;13252;53.596;10.060;2022-12-05T08:27:27;55.13;;;26.30;;
1682;SDS011;13252;53.596;10.060;2022-12-05T08:30:00;58.13;;;26.93;;
1682;SDS011;13252;53.596;10.060;2022-12-05T08:32:32;70.07;;;29.27;;
1682;SDS011;13252;53.596;10.060;2022-12-05T08:35:06;65.93;;;29.20;;
1682;SDS011;13252;53.596;10.060;2022-12-05T08:37:59;64.90;;;27.87;;
1682;SDS011;13252;53.596;10.060;2022-12-05T08:40:34;59.77;;;26.40;;
1682;SDS011;13252;53.596;10.060;2022-12-05T08:43:05;58.40;;;27.43;;
1682;SDS011;13252;53.596;10.060;2022-12-05T08:45:34;55.77;;;25.90;;
1682;SDS011;13252;53.596;10.060;2022-12-05T08:48:04;71.57;;;27.33;;
1682;SDS011;13252;53.596;10.060;2022-12-05T08:50:33;60.63;;;25.00;;
1682;SDS011;13252;53.596;10.060;2022-12-05T08:53:01;56.73;;;27.60;;
1682;SDS011;13252;53.596;10.060;2022-12-05T08:55:29;55.67;;;25.03;;
1682;SDS011;13252;53.596;10.060;2022-12-05T08:57:59;64.30;;;24.47;;
1682;SDS011;13252;53.596;10.060;2022-12-05T09:00:27;57.07;;;25.90;;
1682;SDS011;13252;53.596;10.060;2022-12-05T09:02:57;47.03;;;23.23;;
1682;SDS011;13252;53.596;10.060;2022-12-05T09:05:27;47.77;;;22.17;;
1682;SDS011;13252;53.596;10.060;2022-12-05T09:07:55;46.80;;;22.60;;
1682;SDS011;13252;53.596;10.060;2022-12-05T09:10:24;52.63;;;24.30;;
1682;SDS011;13252;53.596;10.060;2022-12-05T09:12:52;55.07;;;23.07;;
1682;SDS011;13252;53.596;10.060;2022-12-05T09:15:21;59.10;;;27.37;;
1682;SDS011;13252;53.596;10.060;2022-12-05T09:17:49;58.23;;;25.60;;
1682;SDS011;13252;53.596;10.060;2022-12-05T09:20:17;58.20;;;25.07;;
1682;SDS011;13252;53.596;10.060;2022-12-05T09:22:46;56.87;;;25.80;;
1682;SDS011;13252;53.596;10.060;2022-12-05T09:25:13;59.13;;;25.00;;
1682;SDS011;13252;53.596;10.060;2022-12-05T09:27:41;60.30;;;27.10;;
1682;SDS011;13252;53.596;10.060;2022-12-05T09:30:09;58.67;;;26.27;;
1682;SDS011;13252;53.596;10.060;2022-12-05T09:32:37;68.10;;;28.93;;
1682;SDS011;13252;53.596;10.060;2022-12-05T09:35:05;56.17;;;26.70;;
1682;SDS011;13252;53.596;10.060;2022-12-05T09:37:33;63.17;;;26.73;;
1682;SDS011;13252;53.596;10.060;2022-12-05T09:40:09;53.27;;;23.77;;
1682;SDS011;13252;53.596;10.060;2022-12-05T09:42:42;45.23;;;21.33;;
1682;SDS011;13252;53.596;10.060;2022-12-05T09:45:17;58.73;;;24.53;;
1682;SDS011;13252;53.596;10.060;2022-12-05T09:47:52;53.57;;;24.60;;
1682;SDS011;13252;53.596;10.060;2022-12-05T09:50:24;51.13;;;23.30;;
1682;SDS011;13252;53.596;10.060;2022-12-05T09:53:04;49.53;;;22.67;;
1682;SDS011;13252;53.596;10.060;2022-12-05T09:55:38;44.40;;;20.93;;
1682;SDS011;13252;53.596;10.060;2022-12-05T09:58:15;49.60;;;21.80;;
1682;SDS011;13252;53.596;10.060;2022-12-05T10:01:05;41.40;;;20.17;;
1682;SDS011;13252;53.596;10.060;2022-12-05T10:03:44;48.40;;;21.47;;
1682;SDS011;13252;53.596;10.060;2022-12-05T10:06:14;56.43;;;22.40;;
1682;SDS011;13252;53.596;10.060;2022-12-05T10:08:50;46.60;;;22.67;;
1682;SDS011;13252;53.596;10.060;2022-12-05T10:11:33;50.50;;;22.17;;
1682;SDS011;13252;53.596;10.060;2022-12-05T10:14:04;46.33;;;21.67;;
1682;SDS011;13252;53.596;10.060;2022-12-05T10:16:36;40.93;;;22.63;;
1682;SDS011;13252;53.596;10.060;2022-12-05T10:19:09;50.10;;;22.77;;
1682;SDS011;13252;53.596;10.060;2022-12-05T10:21:40;54.20;;;23.23;;
1682;SDS011;13252;53.596;10.060;2022-12-05T10:24:14;45.30;;;22.37;;
1682;SDS011;13252;53.596;10.060;2022-12-05T10:26:46;43.70;;;22.60;;
1682;SDS011;13252;53.596;10.060;2022-12-05T10:29:20;55.33;;;24.10;;
1682;SDS011;13252;53.596;10.060;2022-12-05T10:31:53;46.57;;;21.53;;
1682;SDS011;13252;53.596;10.060;2022-12-05T10:34:25;47.70;;;22.90;;
1682;SDS011;13252;53.596;10.060;2022-12-05T10:36:57;51.70;;;22.57;;
1682;SDS011;13252;53.596;10.060;2022-12-05T10:39:28;45.33;;;22.40;;
1682;SDS011;13252;53.596;10.060;2022-12-05T10:41:57;51.00;;;22.23;;
1682;SDS011;13252;53.596;10.060;2022-12-05T10:44:25;50.47;;;24.20;;
1682;SDS011;13252;53.596;10.060;2022-12-05T10:46:53;44.63;;;21.93;;
1682;SDS011;13252;53.596;10.060;2022-12-05T10:49:20;42.53;;;22.30;;
1682;SDS011;13252;53.596;10.060;2022-12-05T10:51:48;46.77;;;21.97;;
1682;SDS011;13252;53.596;10.060;2022-12-05T10:54:17;46.30;;;23.10;;
1682;SDS011;13252;53.596;10.060;2022-12-05T10:56:48;40.70;;;22.33;;
1682;SDS011;13252;53.596;10.060;2022-12-05T10:59:19;43.93;;;23.60;;
1682;SDS011;13252;53.596;10.060;2022-12-05T11:01:48;39.37;;;22.20;;
1682;SDS011;13252;53.596;10.060;2022-12-05T11:04:19;43.77;;;21.73;;
1682;SDS011;13252;53.596;10.060;2022-12-05T11:06:49;43.67;;;21.53;;
1682;SDS011;13252;53.596;10.060;2022-12-05T11:09:19;42.07;;;20.50;;
1682;SDS011;13252;53.596;10.060;2022-12-05T11:12:02;46.50;;;21.93;;
1682;SDS011;13252;53.596;10.060;2022-12-05T11:14:34;47.60;;;22.67;;
1682;SDS011;13252;53.596;10.060;2022-12-05T11:17:03;42.90;;;19.90;;
1682;SDS011;13252;53.596;10.060;2022-12-05T11:19:32;31.97;;;20.77;;
1682;SDS011;13252;53.596;10.060;2022-12-05T11:22:01;41.30;;;23.10;;
1682;SDS011;13252;53.596;10.060;2022-12-05T11:24:30;39.47;;;20.53;;
1682;SDS011;13252;53.596;10.060;2022-12-05T11:26:59;37.77;;;22.00;;
1682;SDS011;13252;53.596;10.060;2022-12-05T11:29:53;35.40;;;21.10;;
1682;SDS011;13252;53.596;10.060;2022-12-05T11:32:24;43.80;;;22.33;;
1682;SDS011;13252;53.596;10.060;2022-12-05T11:34:55;40.50;;;22.50;;
1682;SDS011;13252;53.596;10.060;2022-12-05T11:37:28;39.93;;;23.00;;
1682;SDS011;13252;53.596;10.060;2022-12-05T11:39:59;38.60;;;19.20;;
1682;SDS011;13252;53.596;10.060;2022-12-05T11:42:30;38.53;;;20.97;;
1682;SDS011;13252;53.596;10.060;2022-12-05T11:45:18;40.57;;;20.90;;
1682;SDS011;13252;53.596;10.060;2022-12-05T11:50:45;31.03;;;19.97;;
1682;SDS011;13252;53.596;10.060;2022-12-05T11:53:26;34.10;;;19.83;;
1682;SDS011;13252;53.596;10.060;2022-12-05T11:56:03;38.63;;;19.10;;
1682;SDS011;13252;53.596;10.060;2022-12-05T11:58:43;31.43;;;18.93;;
1682;SDS011;13252;53.596;10.060;2022-12-05T12:01:20;37.30;;;19.50;;
1682;SDS011;13252;53.596;10.060;2022-12-05T12:03:59;33.77;;;19.60;;
1682;SDS011;13252;53.596;10.060;2022-12-05T12:06:31;34.27;;;18.97;;
1682;SDS011;13252;53.596;10.060;2022-12-05T12:09:08;31.93;;;18.10;;
1682;SDS011;13252;53.596;10.060;2022-12-05T12:11:44;33.37;;;19.83;;
1682;SDS011;13252;53.596;10.060;2022-12-05T12:14:18;47.67;;;21.20;;
1682;SDS011;13252;53.596;10.060;2022-12-05T12:16:53;32.87;;;19.97;;
1682;SDS011;13252;53.596;10.060;2022-12-05T12:19:29;40.67;;;20.70;;
1682;SDS011;13252;53.596;10.060;2022-12-05T12:22:08;34.10;;;18.87;;
1682;SDS011;13252;53.596;10.060;2022-12-05T12:24:49;28.93;;;18.10;;
1682;SDS011;13252;53.596;10.060;2022-12-05T12:27:27;35.97;;;20.33;;
1682;SDS011;13252;53.596;10.060;2022-12-05T12:30:02;33.80;;;19.77;;
1682;SDS011;13252;53.596;10.060;2022-12-05T12:32:37;32.87;;;18.70;;
1682;SDS011;13252;53.596;10.060;2022-12-05T12:35:28;29.90;;;17.83;;
1682;SDS011;13252;53.596;10.060;2022-12-05T12:38:03;34.40;;;18.87;;
1682;SDS011;13252;53.596;10.060;2022-12-05T12:40:45;37.60;;;20.33;;
1682;SDS011;13252;53.596;10.060;2022-12-05T12:43:18;31.47;;;17.50;;
1682;SDS011;13252;53.596;10.060;2022-12-05T12:46:17;28.83;;;18.10;;
1682;SDS011;13252;53.596;10.060;2022-12-05T12:49:00;30.70;;;18.47;;
1682;SDS011;13252;53.596;10.060;2022-12-05T12:51:52;32.40;;;21.30;;
1682;SDS011;13252;53.596;10.060;2022-12-05T12:54:27;33.40;;;19.00;;
1682;SDS011;13252;53.596;10.060;2022-12-05T12:57:22;27.17;;;18.20;;
1682;SDS011;13252;53.596;10.060;2022-12-05T12:59:57;34.20;;;19.77;;
1682;SDS011;13252;53.596;10.060;2022-12-05T13:02:48;31.77;;;17.43;;
1682;SDS011;13252;53.596;10.060;2022-12-05T13:05:20;30.53;;;18.10;;
1682;SDS011;13252;53.596;10.060;2022-12-05T13:07:50;26.93;;;17.40;;
1682;SDS011;13252;53.596;10.060;2022-12-05T13:10:22;24.50;;;17.40;;
1682;SDS011;13252;53.596;10.060;2022-12-05T13:12:53;29.90;;;17.03;;
1682;SDS011;13252;53.596;10.060;2022-12-05T13:15:22;33.37;;;18.70;;
1682;SDS011;13252;53.596;10.060;2022-12-05T13:17:53;26.23;;;17.60;;
1682;SDS011;13252;53.596;10.060;2022-12-05T13:20:23;26.73;;;16.63;;
1682;SDS011;13252;53.596;10.060;2022-12-05T13:22:51;26.53;;;17.27;;
1682;SDS011;13252;53.596;10.060;2022-12-05T13:25:20;24.70;;;15.37;;
1682;SDS011;13252;53.596;10.060;2022-12-05T13:27:52;31.30;;;16.50;;
1682;SDS011;13252;53.596;10.060;2022-12-05T13:30:21;27.93;;;15.50;;
1682;SDS011;13252;53.596;10.060;2022-12-05T13:32:54;29.53;;;17.20;;
1682;SDS011;13252;53.596;10.060;2022-12-05T13:35:26;24.73;;;14.70;;
1682;SDS011;13252;53.596;10.060;2022-12-05T13:38:20;24.63;;;14.60;;
1682;SDS011;13252;53.596;10.060;2022-12-05T13:41:06;23.33;;;14.80;;
1682;SDS011;13252;53.596;10.060;2022-12-05T13:43:52;22.77;;;14.80;;
1682;SDS011;13252;53.596;10.060;2022-12-05T13:46:32;30.57;;;18.03;;
1682;SDS011;13252;53.596;10.060;2022-12-05T13:49:02;28.77;;;17.03;;
1682;SDS011;13252;53.596;10.060;2022-12-05T13:51:36;24.27;;;15.00;;
1682;SDS011;13252;53.596;10.060;2022-12-05T13:54:08;26.23;;;15.40;;
1682;SDS011;13252;53.596;10.060;2022-12-05T13:56:48;26.70;;;15.60;;
1682;SDS011;13252;53.596;10.060;2022-12-05T14:11:15;28.80;;;17.10;;
1682;SDS011;13252;53.596;10.060;2022-12-05T14:13:43;31.70;;;19.60;;
1682;SDS011;13252;53.596;10.060;2022-12-05T14:28:29;23.43;;;14.63;;
1682;SDS011;13252;53.596;10.060;2022-12-05T14:31:12;20.43;;;14.90;;
1682;SDS011;13252;53.596;10.060;2022-12-05T14:33:52;22.33;;;13.63;;
1682;SDS011;13252;53.596;10.060;2022-12-05T14:36:30;23.87;;;14.77;;
1682;SDS011;13252;53.596;10.060;2022-12-05T14:38:59;20.30;;;13.03;;
1682;SDS011;13252;53.596;10.060;2022-12-05T14:41:31;18.10;;;13.40;;
1682;SDS011;13252;53.596;10.060;2022-12-05T14:44:01;18.83;;;13.10;;
1682;SDS011;13252;53.596;10.060;2022-12-05T14:46:34;20.93;;;12.90;;
1682;SDS011;13252;53.596;10.060;2022-12-05T14:52:07;24.40;;;14.50;;
1682;SDS011;13252;53.596;10.060;2022-12-05T14:54:37;21.20;;;14.03;;
1682;SDS011;13252;53.596;10.060;2022-12-05T14:57:08;19.70;;;14.20;;
1682;SDS011;13252;53.596;10.060;2022-12-05T14:59:44;21.30;;;14.43;;
1682;SDS011;13252;53.596;10.060;2022-12-05T15:02:18;18.70;;;12.70;;
1682;SDS011;13252;53.596;10.060;2022-12-05T15:04:50;20.57;;;13.30;;
1682;SDS011;13252;53.596;10.060;2022-12-05T15:07:19;21.03;;;13.70;;
1682;SDS011;13252;53.596;10.060;2022-12-05T15:09:53;21.40;;;14.20;;
1682;SDS011;13252;53.596;10.060;2022-12-05T15:12:24;21.83;;;15.77;;
1682;SDS011;13252;53.596;10.060;2022-12-05T15:14:56;22.57;;;13.77;;
1682;SDS011;13252;53.596;10.060;2022-12-05T15:17:29;19.07;;;11.43;;
1682;SDS011;13252;53.596;10.060;2022-12-05T15:20:04;18.50;;;12.50;;
1682;SDS011;13252;53.596;10.060;2022-12-05T15:22:35;19.97;;;12.97;;
1682;SDS011;13252;53.596;10.060;2022-12-05T15:25:13;18.17;;;12.90;;
1682;SDS011;13252;53.596;10.060;2022-12-05T15:27:49;25.47;;;15.90;;
1682;SDS011;13252;53.596;10.060;2022-12-05T15:30:20;20.17;;;13.63;;
1682;SDS011;13252;53.596;10.060;2022-12-05T15:32:48;19.60;;;13.20;;
1682;SDS011;13252;53.596;10.060;2022-12-05T15:35:23;20.70;;;12.93;;
1682;SDS011;13252;53.596;10.060;2022-12-05T15:37:53;24.10;;;15.27;;
1682;SDS011;13252;53.596;10.060;2022-12-05T15:40:23;20.70;;;13.33;;
1682;SDS011;13252;53.596;10.060;2022-12-05T15:42:51;20.80;;;14.20;;
1682;SDS011;13252;53.596;10.060;2022-12-05T15:45:24;16.47;;;12.40;;
1682;SDS011;13252;53.596;10.060;2022-12-05T15:48:09;19.03;;;12.97;;
1682;SDS011;13252;53.596;10.060;2022-12-05T15:50:38;20.60;;;13.30;;
1682;SDS011;13252;53.596;10.060;2022-12-05T15:53:09;22.10;;;13.93;;
1682;SDS011;13252;53.596;10.060;2022-12-05T15:55:42;15.97;;;12.50;;
1682;SDS011;13252;53.596;10.060;2022-12-05T15:58:14;17.00;;;11.10;;
1682;SDS011;13252;53.596;10.060;2022-12-05T16:01:28;18.50;;;12.13;;